Alturas, California
Current Conditions -  °F | °C
As of 8:55 PM on Friday 19 Dec 2014 (Local Time) from KAAT Reporting Station
Light Rain Light Rain  
Wind Chill: 38°   Ceiling: 2300
Heat Index: 38°   Visibility: 8mi
Dew Point: 36°   Wind: 0mph
Humidity: 93%   Direction: NA
Pressure: 30.09"   Gusts: NA
Location:  41.49°N, 120.54°W
Report Text: KAAT 200455Z AUTO 00000KT 8SM -RA BKN023 OVC033 03/02 A3009 RMK AO2 RAE02B28 SLP194 P0000 T00330022
Loading
Personal Weather Stations






























Interactive Weather Map New forecast layout! Learn more

10-Day Weather Forecast

Advertisements
Track Severe Weather on mobile